sensor_id;sensor_type;location;lat;lon;timestamp;temperature;humidity
81161;DHT22;70637;48.514;14.500;2023-07-29T00:01:35;22.00;62.00
81161;DHT22;70637;48.514;14.500;2023-07-29T00:04:02;22.00;62.30
81161;DHT22;70637;48.514;14.500;2023-07-29T00:06:27;21.90;62.20
81161;DHT22;70637;48.514;14.500;2023-07-29T00:08:55;21.90;62.60
81161;DHT22;70637;48.514;14.500;2023-07-29T00:11:21;21.90;62.60
81161;DHT22;70637;48.514;14.500;2023-07-29T00:13:47;21.90;62.60
81161;DHT22;70637;48.514;14.500;2023-07-29T00:16:15;21.90;62.60
81161;DHT22;70637;48.514;14.500;2023-07-29T00:18:43;21.80;62.50
81161;DHT22;70637;48.514;14.500;2023-07-29T00:21:08;21.80;61.60
81161;DHT22;70637;48.514;14.500;2023-07-29T00:23:34;21.90;61.20
81161;DHT22;70637;48.514;14.500;2023-07-29T00:26:00;21.80;60.90
81161;DHT22;70637;48.514;14.500;2023-07-29T00:28:25;21.90;61.40
81161;DHT22;70637;48.514;14.500;2023-07-29T00:30:51;21.80;61.80
81161;DHT22;70637;48.514;14.500;2023-07-29T00:33:16;21.70;62.30
81161;DHT22;70637;48.514;14.500;2023-07-29T00:35:42;21.70;62.70
81161;DHT22;70637;48.514;14.500;2023-07-29T00:38:08;21.70;62.60
81161;DHT22;70637;48.514;14.500;2023-07-29T00:40:36;21.70;62.60
81161;DHT22;70637;48.514;14.500;2023-07-29T00:43:02;21.70;62.60
81161;DHT22;70637;48.514;14.500;2023-07-29T00:45:29;21.70;62.70
81161;DHT22;70637;48.514;14.500;2023-07-29T00:47:56;21.70;62.80
81161;DHT22;70637;48.514;14.500;2023-07-29T00:50:22;21.70;62.80
81161;DHT22;70637;48.514;14.500;2023-07-29T00:52:49;21.70;63.70
81161;DHT22;70637;48.514;14.500;2023-07-29T00:55:14;21.70;62.80
81161;DHT22;70637;48.514;14.500;2023-07-29T00:57:40;21.70;62.70
81161;DHT22;70637;48.514;14.500;2023-07-29T01:00:08;21.70;62.30
81161;DHT22;70637;48.514;14.500;2023-07-29T01:02:34;21.70;60.80
81161;DHT22;70637;48.514;14.500;2023-07-29T01:05:01;21.70;61.20
81161;DHT22;70637;48.514;14.500;2023-07-29T01:10:13;21.50;61.20
81161;DHT22;70637;48.514;14.500;2023-07-29T01:15:18;21.50;61.80
81161;DHT22;70637;48.514;14.500;2023-07-29T01:17:55;21.60;62.90
81161;DHT22;70637;48.514;14.500;2023-07-29T01:20:23;21.60;61.90
81161;DHT22;70637;48.514;14.500;2023-07-29T01:22:50;21.60;62.00
81161;DHT22;70637;48.514;14.500;2023-07-29T01:25:15;21.70;62.00
81161;DHT22;70637;48.514;14.500;2023-07-29T01:27:43;21.70;62.00
81161;DHT22;70637;48.514;14.500;2023-07-29T01:30:09;21.70;62.00
81161;DHT22;70637;48.514;14.500;2023-07-29T01:32:59;21.50;62.20
81161;DHT22;70637;48.514;14.500;2023-07-29T01:38:03;21.40;62.50
81161;DHT22;70637;48.514;14.500;2023-07-29T01:40:30;21.50;62.40
81161;DHT22;70637;48.514;14.500;2023-07-29T01:42:57;21.50;60.50
81161;DHT22;70637;48.514;14.500;2023-07-29T01:45:25;21.40;59.70
81161;DHT22;70637;48.514;14.500;2023-07-29T01:47:51;21.30;59.90
81161;DHT22;70637;48.514;14.500;2023-07-29T01:50:17;21.10;60.00
81161;DHT22;70637;48.514;14.500;2023-07-29T01:52:43;21.10;60.30
81161;DHT22;70637;48.514;14.500;2023-07-29T01:55:08;21.00;60.20
81161;DHT22;70637;48.514;14.500;2023-07-29T01:57:34;20.90;60.60
81161;DHT22;70637;48.514;14.500;2023-07-29T02:00:00;21.00;60.30
81161;DHT22;70637;48.514;14.500;2023-07-29T02:02:25;21.10;60.10
81161;DHT22;70637;48.514;14.500;2023-07-29T02:04:51;21.20;59.90
81161;DHT22;70637;48.514;14.500;2023-07-29T02:07:21;21.30;59.70
81161;DHT22;70637;48.514;14.500;2023-07-29T02:09:46;21.40;59.50
81161;DHT22;70637;48.514;14.500;2023-07-29T02:12:12;21.40;59.50
81161;DHT22;70637;48.514;14.500;2023-07-29T02:14:39;21.40;59.50
81161;DHT22;70637;48.514;14.500;2023-07-29T02:17:05;21.40;59.30
81161;DHT22;70637;48.514;14.500;2023-07-29T02:19:31;21.40;59.40
81161;DHT22;70637;48.514;14.500;2023-07-29T02:21:56;21.30;59.60
81161;DHT22;70637;48.514;14.500;2023-07-29T02:24:22;21.30;60.00
81161;DHT22;70637;48.514;14.500;2023-07-29T02:26:48;21.20;60.10
81161;DHT22;70637;48.514;14.500;2023-07-29T02:29:13;21.30;60.10
81161;DHT22;70637;48.514;14.500;2023-07-29T02:31:39;21.30;60.10
81161;DHT22;70637;48.514;14.500;2023-07-29T02:34:04;21.00;60.50
81161;DHT22;70637;48.514;14.500;2023-07-29T02:36:30;21.00;60.90
81161;DHT22;70637;48.514;14.500;2023-07-29T02:38:57;20.90;61.10
81161;DHT22;70637;48.514;14.500;2023-07-29T02:41:22;20.60;62.20
81161;DHT22;70637;48.514;14.500;2023-07-29T02:43:48;20.40;63.00
81161;DHT22;70637;48.514;14.500;2023-07-29T02:46:14;20.30;63.60
81161;DHT22;70637;48.514;14.500;2023-07-29T02:48:40;20.30;63.60
81161;DHT22;70637;48.514;14.500;2023-07-29T02:51:06;20.30;63.90
81161;DHT22;70637;48.514;14.500;2023-07-29T02:53:32;20.30;63.90
81161;DHT22;70637;48.514;14.500;2023-07-29T02:55:57;20.50;63.70
81161;DHT22;70637;48.514;14.500;2023-07-29T02:58:23;20.60;63.40
81161;DHT22;70637;48.514;14.500;2023-07-29T03:00:48;20.60;63.10
81161;DHT22;70637;48.514;14.500;2023-07-29T03:03:15;20.60;63.20
81161;DHT22;70637;48.514;14.500;2023-07-29T03:05:41;20.70;63.00
81161;DHT22;70637;48.514;14.500;2023-07-29T03:08:06;20.80;62.50
81161;DHT22;70637;48.514;14.500;2023-07-29T03:10:35;21.00;62.20
81161;DHT22;70637;48.514;14.500;2023-07-29T03:13:01;20.80;62.20
81161;DHT22;70637;48.514;14.500;2023-07-29T03:15:28;20.90;62.20
81161;DHT22;70637;48.514;14.500;2023-07-29T03:17:54;21.00;62.10
81161;DHT22;70637;48.514;14.500;2023-07-29T03:20:21;21.10;62.20
81161;DHT22;70637;48.514;14.500;2023-07-29T03:22:47;21.20;62.10
81161;DHT22;70637;48.514;14.500;2023-07-29T03:25:13;21.20;61.90
81161;DHT22;70637;48.514;14.500;2023-07-29T03:27:39;21.30;61.80
81161;DHT22;70637;48.514;14.500;2023-07-29T03:30:05;21.40;61.80
81161;DHT22;70637;48.514;14.500;2023-07-29T03:32:31;21.40;61.60
81161;DHT22;70637;48.514;14.500;2023-07-29T03:34:57;21.40;61.80
81161;DHT22;70637;48.514;14.500;2023-07-29T03:37:26;21.40;61.80
81161;DHT22;70637;48.514;14.500;2023-07-29T03:39:52;21.30;62.10
81161;DHT22;70637;48.514;14.500;2023-07-29T03:42:18;21.20;62.40
81161;DHT22;70637;48.514;14.500;2023-07-29T03:44:43;21.20;62.50
81161;DHT22;70637;48.514;14.500;2023-07-29T03:47:09;21.20;62.90
81161;DHT22;70637;48.514;14.500;2023-07-29T03:49:34;21.10;63.00
81161;DHT22;70637;48.514;14.500;2023-07-29T03:52:00;21.20;63.10
81161;DHT22;70637;48.514;14.500;2023-07-29T03:54:26;21.20;63.10
81161;DHT22;70637;48.514;14.500;2023-07-29T03:56:51;21.20;63.00
81161;DHT22;70637;48.514;14.500;2023-07-29T03:59:17;21.30;62.90
81161;DHT22;70637;48.514;14.500;2023-07-29T04:01:42;21.30;63.00
81161;DHT22;70637;48.514;14.500;2023-07-29T04:04:08;21.10;63.30
81161;DHT22;70637;48.514;14.500;2023-07-29T04:06:34;20.90;63.70
81161;DHT22;70637;48.514;14.500;2023-07-29T04:08:59;21.00;63.60
81161;DHT22;70637;48.514;14.500;2023-07-29T04:11:28;21.10;63.60
81161;DHT22;70637;48.514;14.500;2023-07-29T04:13:53;21.10;63.40
81161;DHT22;70637;48.514;14.500;2023-07-29T04:16:19;20.90;63.50
81161;DHT22;70637;48.514;14.500;2023-07-29T04:18:45;20.80;63.80
81161;DHT22;70637;48.514;14.500;2023-07-29T04:21:10;20.90;63.60
81161;DHT22;70637;48.514;14.500;2023-07-29T04:23:36;20.90;63.50
81161;DHT22;70637;48.514;14.500;2023-07-29T04:26:01;20.90;63.10
81161;DHT22;70637;48.514;14.500;2023-07-29T04:28:27;20.70;63.40
81161;DHT22;70637;48.514;14.500;2023-07-29T04:30:53;20.90;63.30
81161;DHT22;70637;48.514;14.500;2023-07-29T04:33:18;21.00;63.00
81161;DHT22;70637;48.514;14.500;2023-07-29T04:35:44;21.10;62.70
81161;DHT22;70637;48.514;14.500;2023-07-29T04:38:09;21.10;62.70
81161;DHT22;70637;48.514;14.500;2023-07-29T04:40:35;21.10;62.60
81161;DHT22;70637;48.514;14.500;2023-07-29T04:43:01;21.20;62.40
81161;DHT22;70637;48.514;14.500;2023-07-29T04:45:30;21.40;62.30
81161;DHT22;70637;48.514;14.500;2023-07-29T04:47:56;21.50;61.90
81161;DHT22;70637;48.514;14.500;2023-07-29T04:50:22;21.70;61.50
81161;DHT22;70637;48.514;14.500;2023-07-29T04:52:47;21.90;61.00
81161;DHT22;70637;48.514;14.500;2023-07-29T04:55:13;21.80;60.50
81161;DHT22;70637;48.514;14.500;2023-07-29T04:57:39;21.60;60.80
81161;DHT22;70637;48.514;14.500;2023-07-29T05:00:05;21.60;62.00
81161;DHT22;70637;48.514;14.500;2023-07-29T05:02:31;21.70;61.20
81161;DHT22;70637;48.514;14.500;2023-07-29T05:04:56;21.80;61.00
81161;DHT22;70637;48.514;14.500;2023-07-29T05:07:23;21.70;60.70
81161;DHT22;70637;48.514;14.500;2023-07-29T05:09:49;21.70;60.90
81161;DHT22;70637;48.514;14.500;2023-07-29T05:12:15;21.80;60.80
81161;DHT22;70637;48.514;14.500;2023-07-29T05:14:40;22.00;60.60
81161;DHT22;70637;48.514;14.500;2023-07-29T05:17:06;22.00;60.20
81161;DHT22;70637;48.514;14.500;2023-07-29T05:19:34;22.10;60.00
81161;DHT22;70637;48.514;14.500;2023-07-29T05:22:00;22.10;60.10
81161;DHT22;70637;48.514;14.500;2023-07-29T05:24:26;22.10;60.00
81161;DHT22;70637;48.514;14.500;2023-07-29T05:26:53;22.20;59.70
81161;DHT22;70637;48.514;14.500;2023-07-29T05:29:19;22.30;59.60
81161;DHT22;70637;48.514;14.500;2023-07-29T05:31:45;22.40;59.20
81161;DHT22;70637;48.514;14.500;2023-07-29T05:34:10;22.40;58.90
81161;DHT22;70637;48.514;14.500;2023-07-29T05:36:36;22.40;58.60
81161;DHT22;70637;48.514;14.500;2023-07-29T05:39:01;22.50;58.70
81161;DHT22;70637;48.514;14.500;2023-07-29T05:41:27;22.50;58.30
81161;DHT22;70637;48.514;14.500;2023-07-29T05:43:54;22.50;58.10
81161;DHT22;70637;48.514;14.500;2023-07-29T05:46:20;22.70;58.30
81161;DHT22;70637;48.514;14.500;2023-07-29T05:48:45;22.90;57.90
81161;DHT22;70637;48.514;14.500;2023-07-29T05:51:12;23.20;57.20
81161;DHT22;70637;48.514;14.500;2023-07-29T05:53:38;23.40;56.20
81161;DHT22;70637;48.514;14.500;2023-07-29T05:56:04;23.60;55.90
81161;DHT22;70637;48.514;14.500;2023-07-29T05:58:29;23.70;55.10
81161;DHT22;70637;48.514;14.500;2023-07-29T06:00:57;23.70;54.60
81161;DHT22;70637;48.514;14.500;2023-07-29T06:03:22;23.80;54.90
81161;DHT22;70637;48.514;14.500;2023-07-29T06:05:49;23.80;53.30
81161;DHT22;70637;48.514;14.500;2023-07-29T06:08:14;23.60;53.30
81161;DHT22;70637;48.514;14.500;2023-07-29T06:10:40;23.70;53.90
81161;DHT22;70637;48.514;14.500;2023-07-29T06:13:06;23.80;53.50
81161;DHT22;70637;48.514;14.500;2023-07-29T06:15:31;23.80;53.50
81161;DHT22;70637;48.514;14.500;2023-07-29T06:17:58;23.80;53.50
81161;DHT22;70637;48.514;14.500;2023-07-29T06:20:24;23.70;54.70
81161;DHT22;70637;48.514;14.500;2023-07-29T06:22:49;23.60;53.40
81161;DHT22;70637;48.514;14.500;2023-07-29T06:25:15;23.40;53.80
81161;DHT22;70637;48.514;14.500;2023-07-29T06:27:41;23.50;54.20
81161;DHT22;70637;48.514;14.500;2023-07-29T06:30:07;23.70;54.00
81161;DHT22;70637;48.514;14.500;2023-07-29T06:32:33;23.80;53.90
81161;DHT22;70637;48.514;14.500;2023-07-29T06:34:59;23.90;53.80
81161;DHT22;70637;48.514;14.500;2023-07-29T06:37:24;23.60;53.60
81161;DHT22;70637;48.514;14.500;2023-07-29T06:39:50;23.70;54.00
81161;DHT22;70637;48.514;14.500;2023-07-29T06:42:16;23.50;53.30
81161;DHT22;70637;48.514;14.500;2023-07-29T06:44:41;23.60;53.90
81161;DHT22;70637;48.514;14.500;2023-07-29T06:47:07;23.60;53.00
81161;DHT22;70637;48.514;14.500;2023-07-29T06:49:32;23.50;53.00
81161;DHT22;70637;48.514;14.500;2023-07-29T06:51:58;23.20;53.10
81161;DHT22;70637;48.514;14.500;2023-07-29T06:54:24;23.10;53.40
81161;DHT22;70637;48.514;14.500;2023-07-29T06:56:52;23.20;53.90
81161;DHT22;70637;48.514;14.500;2023-07-29T06:59:17;23.50;53.40
81161;DHT22;70637;48.514;14.500;2023-07-29T07:01:44;23.70;52.70
81161;DHT22;70637;48.514;14.500;2023-07-29T07:04:09;24.00;51.90
81161;DHT22;70637;48.514;14.500;2023-07-29T07:06:37;24.30;51.20
81161;DHT22;70637;48.514;14.500;2023-07-29T07:09:02;24.50;50.10
81161;DHT22;70637;48.514;14.500;2023-07-29T07:11:28;24.70;49.60
81161;DHT22;70637;48.514;14.500;2023-07-29T07:13:54;24.50;49.60
81161;DHT22;70637;48.514;14.500;2023-07-29T07:16:20;24.70;49.50
81161;DHT22;70637;48.514;14.500;2023-07-29T07:18:46;24.90;49.30
81161;DHT22;70637;48.514;14.500;2023-07-29T07:21:11;24.90;48.60
81161;DHT22;70637;48.514;14.500;2023-07-29T07:23:38;24.50;48.80
81161;DHT22;70637;48.514;14.500;2023-07-29T07:26:04;24.20;48.60
81161;DHT22;70637;48.514;14.500;2023-07-29T07:28:30;24.20;49.70
81161;DHT22;70637;48.514;14.500;2023-07-29T07:30:55;24.20;49.10
81161;DHT22;70637;48.514;14.500;2023-07-29T07:33:21;24.00;49.40
81161;DHT22;70637;48.514;14.500;2023-07-29T07:35:47;24.10;50.10
81161;DHT22;70637;48.514;14.500;2023-07-29T07:38:13;24.00;49.20
81161;DHT22;70637;48.514;14.500;2023-07-29T07:40:41;24.00;49.30
81161;DHT22;70637;48.514;14.500;2023-07-29T07:43:06;24.20;49.30
81161;DHT22;70637;48.514;14.500;2023-07-29T07:45:32;24.60;48.80
81161;DHT22;70637;48.514;14.500;2023-07-29T07:47:58;24.90;48.40
81161;DHT22;70637;48.514;14.500;2023-07-29T07:50:24;25.10;48.50
81161;DHT22;70637;48.514;14.500;2023-07-29T07:52:50;25.10;47.30
81161;DHT22;70637;48.514;14.500;2023-07-29T07:55:15;25.00;47.60
81161;DHT22;70637;48.514;14.500;2023-07-29T07:57:41;25.00;46.90
81161;DHT22;70637;48.514;14.500;2023-07-29T08:00:07;25.00;47.90
81161;DHT22;70637;48.514;14.500;2023-07-29T08:02:35;25.10;46.90
81161;DHT22;70637;48.514;14.500;2023-07-29T08:05:00;25.10;46.70
81161;DHT22;70637;48.514;14.500;2023-07-29T08:07:26;25.50;47.50
81161;DHT22;70637;48.514;14.500;2023-07-29T08:09:51;25.80;46.50
81161;DHT22;70637;48.514;14.500;2023-07-29T08:12:17;25.60;47.70
81161;DHT22;70637;48.514;14.500;2023-07-29T08:14:42;25.50;48.50
81161;DHT22;70637;48.514;14.500;2023-07-29T08:17:08;25.40;48.70
81161;DHT22;70637;48.514;14.500;2023-07-29T08:19:34;25.30;48.60
81161;DHT22;70637;48.514;14.500;2023-07-29T08:22:02;25.30;48.20
81161;DHT22;70637;48.514;14.500;2023-07-29T08:24:28;25.30;50.60
81161;DHT22;70637;48.514;14.500;2023-07-29T08:26:54;25.40;51.00
81161;DHT22;70637;48.514;14.500;2023-07-29T08:29:19;25.60;51.10
81161;DHT22;70637;48.514;14.500;2023-07-29T08:31:45;25.70;50.00
81161;DHT22;70637;48.514;14.500;2023-07-29T08:34:10;25.80;49.90
81161;DHT22;70637;48.514;14.500;2023-07-29T08:36:36;25.90;50.40
81161;DHT22;70637;48.514;14.500;2023-07-29T08:39:02;25.90;50.00
81161;DHT22;70637;48.514;14.500;2023-07-29T08:41:32;25.90;49.80
81161;DHT22;70637;48.514;14.500;2023-07-29T08:44:11;25.90;49.00
81161;DHT22;70637;48.514;14.500;2023-07-29T08:46:38;26.20;49.00
81161;DHT22;70637;48.514;14.500;2023-07-29T08:49:05;26.10;47.30
81161;DHT22;70637;48.514;14.500;2023-07-29T08:51:31;25.90;46.50
81161;DHT22;70637;48.514;14.500;2023-07-29T08:53:59;25.70;46.10
81161;DHT22;70637;48.514;14.500;2023-07-29T08:56:25;25.60;46.50
81161;DHT22;70637;48.514;14.500;2023-07-29T08:58:51;25.50;46.70
81161;DHT22;70637;48.514;14.500;2023-07-29T09:01:17;25.40;46.80
81161;DHT22;70637;48.514;14.500;2023-07-29T09:03:43;25.70;46.80
81161;DHT22;70637;48.514;14.500;2023-07-29T09:06:08;25.90;46.20
81161;DHT22;70637;48.514;14.500;2023-07-29T09:08:34;26.10;45.90
81161;DHT22;70637;48.514;14.500;2023-07-29T09:11:03;26.40;46.10
81161;DHT22;70637;48.514;14.500;2023-07-29T09:13:29;26.60;45.40
81161;DHT22;70637;48.514;14.500;2023-07-29T09:15:56;26.90;45.50
81161;DHT22;70637;48.514;14.500;2023-07-29T09:18:22;27.00;44.60
81161;DHT22;70637;48.514;14.500;2023-07-29T09:20:49;26.70;44.60
81161;DHT22;70637;48.514;14.500;2023-07-29T09:23:16;26.60;44.70
81161;DHT22;70637;48.514;14.500;2023-07-29T09:25:42;26.60;44.50
81161;DHT22;70637;48.514;14.500;2023-07-29T09:28:14;26.70;45.00
81161;DHT22;70637;48.514;14.500;2023-07-29T09:30:41;26.50;45.20
81161;DHT22;70637;48.514;14.500;2023-07-29T09:33:08;26.60;45.40
81161;DHT22;70637;48.514;14.500;2023-07-29T09:35:35;26.50;45.90
81161;DHT22;70637;48.514;14.500;2023-07-29T09:38:05;26.30;45.50
81161;DHT22;70637;48.514;14.500;2023-07-29T09:40:38;26.30;45.60
81161;DHT22;70637;48.514;14.500;2023-07-29T09:43:04;26.30;45.40
81161;DHT22;70637;48.514;14.500;2023-07-29T09:45:33;26.50;46.00
81161;DHT22;70637;48.514;14.500;2023-07-29T09:47:59;26.70;45.80
81161;DHT22;70637;48.514;14.500;2023-07-29T09:50:25;27.00;44.70
81161;DHT22;70637;48.514;14.500;2023-07-29T09:52:52;27.20;44.10
81161;DHT22;70637;48.514;14.500;2023-07-29T09:55:19;27.50;43.60
81161;DHT22;70637;48.514;14.500;2023-07-29T09:57:46;27.80;42.90
81161;DHT22;70637;48.514;14.500;2023-07-29T10:00:12;28.00;42.70
81161;DHT22;70637;48.514;14.500;2023-07-29T10:02:43;28.00;42.90
81161;DHT22;70637;48.514;14.500;2023-07-29T10:05:09;27.80;41.60
81161;DHT22;70637;48.514;14.500;2023-07-29T10:07:39;27.80;41.70
81161;DHT22;70637;48.514;14.500;2023-07-29T10:10:06;27.20;41.50
81161;DHT22;70637;48.514;14.500;2023-07-29T10:12:33;27.00;42.20
81161;DHT22;70637;48.514;14.500;2023-07-29T10:15:01;26.60;42.40
81161;DHT22;70637;48.514;14.500;2023-07-29T10:17:27;26.50;43.10
81161;DHT22;70637;48.514;14.500;2023-07-29T10:19:56;26.60;42.60
81161;DHT22;70637;48.514;14.500;2023-07-29T10:22:25;26.90;42.60
81161;DHT22;70637;48.514;14.500;2023-07-29T10:24:56;26.80;41.60
81161;DHT22;70637;48.514;14.500;2023-07-29T10:27:24;26.90;42.60
81161;DHT22;70637;48.514;14.500;2023-07-29T10:29:50;26.90;42.50
81161;DHT22;70637;48.514;14.500;2023-07-29T10:32:19;26.60;42.40
81161;DHT22;70637;48.514;14.500;2023-07-29T10:34:48;26.30;43.70
81161;DHT22;70637;48.514;14.500;2023-07-29T10:37:14;26.20;44.40
81161;DHT22;70637;48.514;14.500;2023-07-29T10:39:45;26.10;44.90
81161;DHT22;70637;48.514;14.500;2023-07-29T10:42:17;26.10;43.60
81161;DHT22;70637;48.514;14.500;2023-07-29T10:44:46;25.70;44.90
81161;DHT22;70637;48.514;14.500;2023-07-29T10:47:24;25.80;45.20
81161;DHT22;70637;48.514;14.500;2023-07-29T10:49:52;25.70;45.20
81161;DHT22;70637;48.514;14.500;2023-07-29T10:55:00;25.70;47.00
81161;DHT22;70637;48.514;14.500;2023-07-29T10:57:32;25.70;47.40
81161;DHT22;70637;48.514;14.500;2023-07-29T10:59:58;25.70;48.20
81161;DHT22;70637;48.514;14.500;2023-07-29T11:02:40;25.70;48.50
81161;DHT22;70637;48.514;14.500;2023-07-29T11:05:16;25.70;48.80
81161;DHT22;70637;48.514;14.500;2023-07-29T11:07:49;25.80;48.20
81161;DHT22;70637;48.514;14.500;2023-07-29T11:10:15;25.80;48.40
81161;DHT22;70637;48.514;14.500;2023-07-29T11:12:49;25.80;48.00
81161;DHT22;70637;48.514;14.500;2023-07-29T11:15:22;25.80;47.80
81161;DHT22;70637;48.514;14.500;2023-07-29T11:17:50;25.80;47.60
81161;DHT22;70637;48.514;14.500;2023-07-29T11:20:17;25.80;49.20
81161;DHT22;70637;48.514;14.500;2023-07-29T11:22:43;25.90;47.80
81161;DHT22;70637;48.514;14.500;2023-07-29T11:25:11;25.90;47.80
81161;DHT22;70637;48.514;14.500;2023-07-29T11:27:37;25.90;47.80
81161;DHT22;70637;48.514;14.500;2023-07-29T11:30:07;25.90;48.40
81161;DHT22;70637;48.514;14.500;2023-07-29T11:32:35;26.00;48.50
81161;DHT22;70637;48.514;14.500;2023-07-29T11:35:09;26.10;47.90
81161;DHT22;70637;48.514;14.500;2023-07-29T11:37:37;26.10;47.30
81161;DHT22;70637;48.514;14.500;2023-07-29T11:40:03;26.20;48.00
81161;DHT22;70637;48.514;14.500;2023-07-29T11:42:32;26.30;47.10
81161;DHT22;70637;48.514;14.500;2023-07-29T11:44:58;26.40;46.60
81161;DHT22;70637;48.514;14.500;2023-07-29T11:47:24;26.40;46.70
81161;DHT22;70637;48.514;14.500;2023-07-29T11:49:50;26.60;46.30
81161;DHT22;70637;48.514;14.500;2023-07-29T11:52:15;26.60;45.60
81161;DHT22;70637;48.514;14.500;2023-07-29T11:54:47;26.80;45.90
81161;DHT22;70637;48.514;14.500;2023-07-29T11:57:13;27.10;44.70
81161;DHT22;70637;48.514;14.500;2023-07-29T11:59:40;27.20;44.90
81161;DHT22;70637;48.514;14.500;2023-07-29T12:02:12;27.20;44.60
81161;DHT22;70637;48.514;14.500;2023-07-29T12:04:39;27.00;45.10
81161;DHT22;70637;48.514;14.500;2023-07-29T12:07:06;27.20;45.70
81161;DHT22;70637;48.514;14.500;2023-07-29T12:09:33;27.50;45.00
81161;DHT22;70637;48.514;14.500;2023-07-29T12:11:59;27.60;44.40
81161;DHT22;70637;48.514;14.500;2023-07-29T12:14:29;28.00;44.50
81161;DHT22;70637;48.514;14.500;2023-07-29T12:16:54;28.40;44.10
81161;DHT22;70637;48.514;14.500;2023-07-29T12:19:20;28.60;43.80
81161;DHT22;70637;48.514;14.500;2023-07-29T12:21:48;28.80;43.10
81161;DHT22;70637;48.514;14.500;2023-07-29T12:24:14;28.80;41.80
81161;DHT22;70637;48.514;14.500;2023-07-29T12:26:41;28.80;42.00
81161;DHT22;70637;48.514;14.500;2023-07-29T12:29:18;28.80;41.40
81161;DHT22;70637;48.514;14.500;2023-07-29T12:31:47;28.80;41.60
81161;DHT22;70637;48.514;14.500;2023-07-29T12:34:19;29.40;42.50
81161;DHT22;70637;48.514;14.500;2023-07-29T12:36:50;30.00;41.30
81161;DHT22;70637;48.514;14.500;2023-07-29T12:41:45;30.50;39.60
81161;DHT22;70637;48.514;14.500;2023-07-29T12:44:11;30.60;39.70
81161;DHT22;70637;48.514;14.500;2023-07-29T12:46:37;30.70;38.70
81161;DHT22;70637;48.514;14.500;2023-07-29T12:49:03;30.90;38.10
81161;DHT22;70637;48.514;14.500;2023-07-29T12:51:28;31.40;38.40
81161;DHT22;70637;48.514;14.500;2023-07-29T12:53:54;31.50;37.60
81161;DHT22;70637;48.514;14.500;2023-07-29T12:56:20;32.20;37.50
81161;DHT22;70637;48.514;14.500;2023-07-29T12:58:45;32.80;35.90
81161;DHT22;70637;48.514;14.500;2023-07-29T13:01:12;33.50;34.40
81161;DHT22;70637;48.514;14.500;2023-07-29T13:03:42;33.80;32.10
81161;DHT22;70637;48.514;14.500;2023-07-29T13:06:08;33.00;31.00
81161;DHT22;70637;48.514;14.500;2023-07-29T13:08:33;32.90;31.50
81161;DHT22;70637;48.514;14.500;2023-07-29T13:10:59;32.80;31.60
81161;DHT22;70637;48.514;14.500;2023-07-29T13:13:25;32.90;31.10
81161;DHT22;70637;48.514;14.500;2023-07-29T13:15:50;32.80;31.30
81161;DHT22;70637;48.514;14.500;2023-07-29T13:18:16;32.90;31.60
81161;DHT22;70637;48.514;14.500;2023-07-29T13:20:42;32.90;31.60
81161;DHT22;70637;48.514;14.500;2023-07-29T13:23:07;32.50;30.30
81161;DHT22;70637;48.514;14.500;2023-07-29T13:25:33;32.20;31.90
81161;DHT22;70637;48.514;14.500;2023-07-29T13:27:59;31.80;32.00
81161;DHT22;70637;48.514;14.500;2023-07-29T13:30:24;30.90;32.30
81161;DHT22;70637;48.514;14.500;2023-07-29T13:32:50;30.40;34.20
81161;DHT22;70637;48.514;14.500;2023-07-29T13:35:15;30.00;35.10
81161;DHT22;70637;48.514;14.500;2023-07-29T13:37:41;29.80;35.60
81161;DHT22;70637;48.514;14.500;2023-07-29T13:40:07;29.50;36.40
81161;DHT22;70637;48.514;14.500;2023-07-29T13:42:33;28.80;37.50
81161;DHT22;70637;48.514;14.500;2023-07-29T13:44:58;28.60;38.40
81161;DHT22;70637;48.514;14.500;2023-07-29T13:47:24;28.50;38.80
81161;DHT22;70637;48.514;14.500;2023-07-29T13:49:49;28.50;39.20
81161;DHT22;70637;48.514;14.500;2023-07-29T13:52:15;28.40;39.20
81161;DHT22;70637;48.514;14.500;2023-07-29T13:54:40;28.30;39.70
81161;DHT22;70637;48.514;14.500;2023-07-29T13:57:06;27.90;40.50
81161;DHT22;70637;48.514;14.500;2023-07-29T13:59:32;27.40;41.80
81161;DHT22;70637;48.514;14.500;2023-07-29T14:01:58;26.80;44.00
81161;DHT22;70637;48.514;14.500;2023-07-29T14:04:23;26.40;45.60
81161;DHT22;70637;48.514;14.500;2023-07-29T14:06:49;25.90;46.60
81161;DHT22;70637;48.514;14.500;2023-07-29T14:09:15;25.60;47.80
81161;DHT22;70637;48.514;14.500;2023-07-29T14:11:41;25.60;48.30
81161;DHT22;70637;48.514;14.500;2023-07-29T14:14:07;25.70;48.60
81161;DHT22;70637;48.514;14.500;2023-07-29T14:16:33;25.90;48.10
81161;DHT22;70637;48.514;14.500;2023-07-29T14:19:00;26.00;47.10
81161;DHT22;70637;48.514;14.500;2023-07-29T14:21:25;26.20;47.20
81161;DHT22;70637;48.514;14.500;2023-07-29T14:23:51;27.90;45.10
81161;DHT22;70637;48.514;14.500;2023-07-29T14:26:17;29.40;42.80
81161;DHT22;70637;48.514;14.500;2023-07-29T14:28:44;30.10;38.40
81161;DHT22;70637;48.514;14.500;2023-07-29T14:31:10;32.50;37.30
81161;DHT22;70637;48.514;14.500;2023-07-29T14:33:35;36.80;32.30
81161;DHT22;70637;48.514;14.500;2023-07-29T14:36:01;40.40;26.80
81161;DHT22;70637;48.514;14.500;2023-07-29T14:38:29;40.90;23.60
81161;DHT22;70637;48.514;14.500;2023-07-29T14:40:54;42.50;23.10
81161;DHT22;70637;48.514;14.500;2023-07-29T14:43:22;43.70;21.10
81161;DHT22;70637;48.514;14.500;2023-07-29T14:45:49;45.50;20.90
81161;DHT22;70637;48.514;14.500;2023-07-29T14:48:14;47.00;18.60
81161;DHT22;70637;48.514;14.500;2023-07-29T14:50:40;47.60;18.60
81161;DHT22;70637;48.514;14.500;2023-07-29T14:53:06;48.60;17.30
81161;DHT22;70637;48.514;14.500;2023-07-29T14:55:32;49.80;16.40
81161;DHT22;70637;48.514;14.500;2023-07-29T14:57:58;50.90;15.80
81161;DHT22;70637;48.514;14.500;2023-07-29T15:00:23;52.40;15.60
81161;DHT22;70637;48.514;14.500;2023-07-29T15:02:49;54.00;14.00
81161;DHT22;70637;48.514;14.500;2023-07-29T15:05:14;54.80;12.10
81161;DHT22;70637;48.514;14.500;2023-07-29T15:07:40;52.60;12.40
81161;DHT22;70637;48.514;14.500;2023-07-29T15:10:06;50.50;11.80
81161;DHT22;70637;48.514;14.500;2023-07-29T15:12:32;48.10;13.70
81161;DHT22;70637;48.514;14.500;2023-07-29T15:14:57;49.20;14.50
81161;DHT22;70637;48.514;14.500;2023-07-29T15:17:23;50.30;13.60
81161;DHT22;70637;48.514;14.500;2023-07-29T15:19:49;50.50;12.50
81161;DHT22;70637;48.514;14.500;2023-07-29T15:22:16;49.80;12.70
81161;DHT22;70637;48.514;14.500;2023-07-29T15:24:41;48.80;12.50